sensor_id;sensor_type;location;lat;lon;timestamp;P1;durP1;ratioP1;P2;durP2;ratioP2
50932;SDS011;36921;49.006;9.292;2023-02-12T00:01:22;35.90;;;17.15;;
50932;SDS011;36921;49.006;9.292;2023-02-12T00:03:49;33.85;;;16.33;;
50932;SDS011;36921;49.006;9.292;2023-02-12T00:06:14;31.83;;;16.90;;
50932;SDS011;36921;49.006;9.292;2023-02-12T00:08:40;32.15;;;16.52;;
50932;SDS011;36921;49.006;9.292;2023-02-12T00:11:06;35.97;;;18.05;;
50932;SDS011;36921;49.006;9.292;2023-02-12T00:13:33;37.92;;;18.45;;
50932;SDS011;36921;49.006;9.292;2023-02-12T00:15:58;40.47;;;20.60;;
50932;SDS011;36921;49.006;9.292;2023-02-12T00:18:23;38.17;;;18.27;;
50932;SDS011;36921;49.006;9.292;2023-02-12T00:20:49;38.55;;;18.58;;
50932;SDS011;36921;49.006;9.292;2023-02-12T00:23:14;38.50;;;19.67;;
50932;SDS011;36921;49.006;9.292;2023-02-12T00:25:40;34.33;;;17.48;;
50932;SDS011;36921;49.006;9.292;2023-02-12T00:28:06;32.45;;;16.55;;
50932;SDS011;36921;49.006;9.292;2023-02-12T00:30:31;36.17;;;17.65;;
50932;SDS011;36921;49.006;9.292;2023-02-12T00:32:57;35.72;;;16.75;;
50932;SDS011;36921;49.006;9.292;2023-02-12T00:35:22;32.65;;;16.70;;
50932;SDS011;36921;49.006;9.292;2023-02-12T00:37:47;38.95;;;17.35;;
50932;SDS011;36921;49.006;9.292;2023-02-12T00:40:13;29.42;;;15.75;;
50932;SDS011;36921;49.006;9.292;2023-02-12T00:42:38;31.17;;;15.85;;
50932;SDS011;36921;49.006;9.292;2023-02-12T00:45:03;30.35;;;15.85;;
50932;SDS011;36921;49.006;9.292;2023-02-12T00:47:29;31.30;;;16.33;;
50932;SDS011;36921;49.006;9.292;2023-02-12T00:49:54;31.80;;;15.88;;
50932;SDS011;36921;49.006;9.292;2023-02-12T00:52:19;33.35;;;16.77;;
50932;SDS011;36921;49.006;9.292;2023-02-12T00:54:45;30.52;;;15.98;;
50932;SDS011;36921;49.006;9.292;2023-02-12T00:57:10;28.90;;;15.43;;
50932;SDS011;36921;49.006;9.292;2023-02-12T00:59:35;29.05;;;16.15;;
50932;SDS011;36921;49.006;9.292;2023-02-12T01:02:04;35.73;;;17.40;;
50932;SDS011;36921;49.006;9.292;2023-02-12T01:04:29;31.25;;;17.38;;
50932;SDS011;36921;49.006;9.292;2023-02-12T01:06:54;32.40;;;16.55;;
50932;SDS011;36921;49.006;9.292;2023-02-12T01:09:19;31.80;;;16.13;;
50932;SDS011;36921;49.006;9.292;2023-02-12T01:11:45;36.05;;;16.75;;
50932;SDS011;36921;49.006;9.292;2023-02-12T01:14:10;34.22;;;17.58;;
50932;SDS011;36921;49.006;9.292;2023-02-12T01:16:35;35.58;;;17.98;;
50932;SDS011;36921;49.006;9.292;2023-02-12T01:19:01;32.92;;;17.20;;
50932;SDS011;36921;49.006;9.292;2023-02-12T01:21:28;33.15;;;17.00;;
50932;SDS011;36921;49.006;9.292;2023-02-12T01:23:56;36.85;;;17.30;;
50932;SDS011;36921;49.006;9.292;2023-02-12T01:26:23;32.33;;;16.92;;
50932;SDS011;36921;49.006;9.292;2023-02-12T01:28:50;32.08;;;18.40;;
50932;SDS011;36921;49.006;9.292;2023-02-12T01:31:19;33.05;;;17.63;;
50932;SDS011;36921;49.006;9.292;2023-02-12T01:33:50;33.97;;;17.55;;
50932;SDS011;36921;49.006;9.292;2023-02-12T01:36:16;33.65;;;17.40;;
50932;SDS011;36921;49.006;9.292;2023-02-12T01:38:42;34.05;;;18.00;;
50932;SDS011;36921;49.006;9.292;2023-02-12T01:41:12;35.75;;;17.70;;
50932;SDS011;36921;49.006;9.292;2023-02-12T01:43:39;29.73;;;17.38;;
50932;SDS011;36921;49.006;9.292;2023-02-12T01:46:05;33.38;;;17.58;;
50932;SDS011;36921;49.006;9.292;2023-02-12T01:48:32;32.70;;;17.10;;
50932;SDS011;36921;49.006;9.292;2023-02-12T01:51:00;34.40;;;17.42;;
50932;SDS011;36921;49.006;9.292;2023-02-12T01:53:29;34.30;;;17.63;;
50932;SDS011;36921;49.006;9.292;2023-02-12T01:55:59;35.03;;;18.20;;
50932;SDS011;36921;49.006;9.292;2023-02-12T01:58:28;35.47;;;18.98;;
50932;SDS011;36921;49.006;9.292;2023-02-12T02:00:59;31.38;;;17.92;;
50932;SDS011;36921;49.006;9.292;2023-02-12T02:03:26;32.65;;;17.80;;
50932;SDS011;36921;49.006;9.292;2023-02-12T02:05:53;37.22;;;17.70;;
50932;SDS011;36921;49.006;9.292;2023-02-12T02:08:23;35.58;;;17.90;;
50932;SDS011;36921;49.006;9.292;2023-02-12T02:10:49;39.65;;;17.77;;
50932;SDS011;36921;49.006;9.292;2023-02-12T02:13:15;36.13;;;18.83;;
50932;SDS011;36921;49.006;9.292;2023-02-12T02:15:59;32.92;;;17.38;;
50932;SDS011;36921;49.006;9.292;2023-02-12T02:18:37;38.05;;;18.23;;
50932;SDS011;36921;49.006;9.292;2023-02-12T02:21:19;36.60;;;17.95;;
50932;SDS011;36921;49.006;9.292;2023-02-12T02:24:20;34.40;;;17.60;;
50932;SDS011;36921;49.006;9.292;2023-02-12T02:30:53;32.17;;;17.60;;
50932;SDS011;36921;49.006;9.292;2023-02-12T02:36:24;32.53;;;16.50;;
50932;SDS011;36921;49.006;9.292;2023-02-12T02:41:24;36.13;;;17.73;;
50932;SDS011;36921;49.006;9.292;2023-02-12T02:43:55;37.75;;;18.92;;
50932;SDS011;36921;49.006;9.292;2023-02-12T02:46:31;31.75;;;18.00;;
50932;SDS011;36921;49.006;9.292;2023-02-12T02:49:01;33.67;;;18.02;;
50932;SDS011;36921;49.006;9.292;2023-02-12T02:51:30;35.20;;;17.55;;
50932;SDS011;36921;49.006;9.292;2023-02-12T02:54:03;37.30;;;17.80;;
50932;SDS011;36921;49.006;9.292;2023-02-12T02:56:29;35.38;;;18.15;;
50932;SDS011;36921;49.006;9.292;2023-02-12T02:59:00;35.90;;;17.77;;
50932;SDS011;36921;49.006;9.292;2023-02-12T03:01:31;35.05;;;17.25;;
50932;SDS011;36921;49.006;9.292;2023-02-12T03:06:40;39.72;;;18.67;;
50932;SDS011;36921;49.006;9.292;2023-02-12T03:12:05;34.38;;;17.15;;
50932;SDS011;36921;49.006;9.292;2023-02-12T03:14:48;29.70;;;16.65;;
50932;SDS011;36921;49.006;9.292;2023-02-12T03:17:20;32.28;;;17.30;;
50932;SDS011;36921;49.006;9.292;2023-02-12T03:19:59;30.38;;;16.50;;
50932;SDS011;36921;49.006;9.292;2023-02-12T03:22:33;33.63;;;16.52;;
50932;SDS011;36921;49.006;9.292;2023-02-12T03:27:41;35.65;;;18.52;;
50932;SDS011;36921;49.006;9.292;2023-02-12T03:30:12;37.95;;;18.13;;
50932;SDS011;36921;49.006;9.292;2023-02-12T03:32:52;38.55;;;19.05;;
50932;SDS011;36921;49.006;9.292;2023-02-12T03:35:31;36.95;;;19.52;;
50932;SDS011;36921;49.006;9.292;2023-02-12T03:38:08;35.78;;;17.98;;
50932;SDS011;36921;49.006;9.292;2023-02-12T03:43:20;31.80;;;17.00;;
50932;SDS011;36921;49.006;9.292;2023-02-12T03:46:04;31.95;;;16.60;;
50932;SDS011;36921;49.006;9.292;2023-02-12T03:48:41;35.08;;;17.85;;
50932;SDS011;36921;49.006;9.292;2023-02-12T03:51:21;38.20;;;18.75;;
50932;SDS011;36921;49.006;9.292;2023-02-12T03:53:49;36.35;;;19.10;;
50932;SDS011;36921;49.006;9.292;2023-02-12T03:57:00;38.67;;;19.83;;
50932;SDS011;36921;49.006;9.292;2023-02-12T03:59:06;36.33;;;18.02;;
50932;SDS011;36921;49.006;9.292;2023-02-12T04:01:32;33.95;;;17.35;;
50932;SDS011;36921;49.006;9.292;2023-02-12T04:03:59;33.38;;;17.38;;
50932;SDS011;36921;49.006;9.292;2023-02-12T04:08:54;34.92;;;17.02;;
50932;SDS011;36921;49.006;9.292;2023-02-12T04:14:16;30.42;;;16.35;;
50932;SDS011;36921;49.006;9.292;2023-02-12T04:17:05;32.10;;;16.80;;
50932;SDS011;36921;49.006;9.292;2023-02-12T04:27:36;34.30;;;17.17;;
50932;SDS011;36921;49.006;9.292;2023-02-12T04:31:04;36.17;;;15.50;;
50932;SDS011;36921;49.006;9.292;2023-02-12T04:33:22;28.48;;;15.43;;
50932;SDS011;36921;49.006;9.292;2023-02-12T04:35:52;35.20;;;16.05;;
50932;SDS011;36921;49.006;9.292;2023-02-12T04:38:39;31.98;;;16.10;;
50932;SDS011;36921;49.006;9.292;2023-02-12T04:41:15;35.80;;;16.02;;
50932;SDS011;36921;49.006;9.292;2023-02-12T04:43:41;28.98;;;15.70;;
50932;SDS011;36921;49.006;9.292;2023-02-12T04:46:06;30.92;;;16.50;;
50932;SDS011;36921;49.006;9.292;2023-02-12T04:48:32;30.42;;;16.63;;
50932;SDS011;36921;49.006;9.292;2023-02-12T04:50:58;33.72;;;18.23;;
50932;SDS011;36921;49.006;9.292;2023-02-12T04:53:24;33.55;;;16.70;;
50932;SDS011;36921;49.006;9.292;2023-02-12T04:55:50;30.20;;;16.13;;
50932;SDS011;36921;49.006;9.292;2023-02-12T04:58:15;34.17;;;15.82;;
50932;SDS011;36921;49.006;9.292;2023-02-12T05:00:41;33.67;;;16.77;;
50932;SDS011;36921;49.006;9.292;2023-02-12T05:03:06;30.95;;;15.57;;
50932;SDS011;36921;49.006;9.292;2023-02-12T05:05:32;33.53;;;17.13;;
50932;SDS011;36921;49.006;9.292;2023-02-12T05:07:57;26.95;;;14.98;;
50932;SDS011;36921;49.006;9.292;2023-02-12T05:10:23;31.70;;;15.63;;
50932;SDS011;36921;49.006;9.292;2023-02-12T05:12:50;35.17;;;17.35;;
50932;SDS011;36921;49.006;9.292;2023-02-12T05:15:19;30.45;;;16.08;;
50932;SDS011;36921;49.006;9.292;2023-02-12T05:17:45;30.45;;;14.70;;
50932;SDS011;36921;49.006;9.292;2023-02-12T05:20:11;30.77;;;15.02;;
50932;SDS011;36921;49.006;9.292;2023-02-12T05:22:37;32.78;;;16.50;;
50932;SDS011;36921;49.006;9.292;2023-02-12T05:25:03;30.58;;;15.98;;
50932;SDS011;36921;49.006;9.292;2023-02-12T05:27:29;33.22;;;15.70;;
50932;SDS011;36921;49.006;9.292;2023-02-12T05:29:54;30.95;;;16.40;;
50932;SDS011;36921;49.006;9.292;2023-02-12T05:32:22;28.35;;;16.65;;
50932;SDS011;36921;49.006;9.292;2023-02-12T05:34:51;28.67;;;15.90;;
50932;SDS011;36921;49.006;9.292;2023-02-12T05:37:17;30.30;;;15.70;;
50932;SDS011;36921;49.006;9.292;2023-02-12T05:42:42;30.38;;;14.70;;
50932;SDS011;36921;49.006;9.292;2023-02-12T05:45:07;30.55;;;15.73;;
50932;SDS011;36921;49.006;9.292;2023-02-12T05:47:33;33.83;;;15.77;;
50932;SDS011;36921;49.006;9.292;2023-02-12T05:49:58;29.75;;;15.63;;
50932;SDS011;36921;49.006;9.292;2023-02-12T05:52:23;29.85;;;15.95;;
50932;SDS011;36921;49.006;9.292;2023-02-12T05:54:49;33.67;;;15.73;;
50932;SDS011;36921;49.006;9.292;2023-02-12T05:57:14;29.08;;;15.07;;
50932;SDS011;36921;49.006;9.292;2023-02-12T05:59:39;28.23;;;16.42;;
50932;SDS011;36921;49.006;9.292;2023-02-12T06:02:05;32.05;;;16.30;;
50932;SDS011;36921;49.006;9.292;2023-02-12T06:04:30;34.83;;;19.20;;
50932;SDS011;36921;49.006;9.292;2023-02-12T06:06:55;35.35;;;18.48;;
50932;SDS011;36921;49.006;9.292;2023-02-12T06:09:21;37.30;;;18.55;;
50932;SDS011;36921;49.006;9.292;2023-02-12T06:11:48;31.80;;;18.05;;
50932;SDS011;36921;49.006;9.292;2023-02-12T06:14:14;34.80;;;19.08;;
50932;SDS011;36921;49.006;9.292;2023-02-12T06:16:42;32.13;;;18.08;;
50932;SDS011;36921;49.006;9.292;2023-02-12T06:19:08;38.92;;;19.80;;
50932;SDS011;36921;49.006;9.292;2023-02-12T06:21:34;34.88;;;19.33;;
50932;SDS011;36921;49.006;9.292;2023-02-12T06:23:59;36.28;;;19.38;;
50932;SDS011;36921;49.006;9.292;2023-02-12T06:26:25;35.13;;;18.88;;
50932;SDS011;36921;49.006;9.292;2023-02-12T06:28:59;35.45;;;18.42;;
50932;SDS011;36921;49.006;9.292;2023-02-12T06:31:29;40.15;;;18.60;;
50932;SDS011;36921;49.006;9.292;2023-02-12T06:33:58;36.13;;;18.15;;
50932;SDS011;36921;49.006;9.292;2023-02-12T06:38:51;38.03;;;19.70;;
50932;SDS011;36921;49.006;9.292;2023-02-12T06:41:17;36.83;;;18.77;;
50932;SDS011;36921;49.006;9.292;2023-02-12T06:43:43;35.17;;;19.65;;
50932;SDS011;36921;49.006;9.292;2023-02-12T06:46:08;39.10;;;19.58;;
50932;SDS011;36921;49.006;9.292;2023-02-12T06:48:34;34.97;;;19.25;;
50932;SDS011;36921;49.006;9.292;2023-02-12T06:51:03;36.75;;;19.13;;
50932;SDS011;36921;49.006;9.292;2023-02-12T06:53:29;36.92;;;19.88;;
50932;SDS011;36921;49.006;9.292;2023-02-12T06:55:55;33.83;;;18.85;;
50932;SDS011;36921;49.006;9.292;2023-02-12T06:58:20;40.72;;;20.15;;
50932;SDS011;36921;49.006;9.292;2023-02-12T07:00:45;41.22;;;21.17;;
50932;SDS011;36921;49.006;9.292;2023-02-12T07:03:10;39.95;;;20.33;;
50932;SDS011;36921;49.006;9.292;2023-02-12T07:05:38;50.53;;;20.58;;
50932;SDS011;36921;49.006;9.292;2023-02-12T07:08:03;41.05;;;20.98;;
50932;SDS011;36921;49.006;9.292;2023-02-12T07:10:29;37.22;;;20.73;;
50932;SDS011;36921;49.006;9.292;2023-02-12T07:12:54;40.15;;;20.88;;
50932;SDS011;36921;49.006;9.292;2023-02-12T07:15:27;37.15;;;19.00;;
50932;SDS011;36921;49.006;9.292;2023-02-12T07:17:53;43.53;;;22.35;;
50932;SDS011;36921;49.006;9.292;2023-02-12T07:20:18;38.85;;;21.27;;
50932;SDS011;36921;49.006;9.292;2023-02-12T07:22:43;42.70;;;21.92;;
50932;SDS011;36921;49.006;9.292;2023-02-12T07:25:09;44.05;;;21.17;;
50932;SDS011;36921;49.006;9.292;2023-02-12T07:27:37;45.45;;;22.33;;
50932;SDS011;36921;49.006;9.292;2023-02-12T07:30:04;42.33;;;22.03;;
50932;SDS011;36921;49.006;9.292;2023-02-12T07:32:30;44.60;;;21.70;;
50932;SDS011;36921;49.006;9.292;2023-02-12T07:34:59;39.45;;;21.45;;
50932;SDS011;36921;49.006;9.292;2023-02-12T07:37:24;35.92;;;20.00;;
50932;SDS011;36921;49.006;9.292;2023-02-12T07:39:49;37.72;;;19.30;;
50932;SDS011;36921;49.006;9.292;2023-02-12T07:42:15;38.65;;;20.05;;
50932;SDS011;36921;49.006;9.292;2023-02-12T07:44:41;40.60;;;21.35;;
50932;SDS011;36921;49.006;9.292;2023-02-12T07:47:07;52.13;;;22.73;;
50932;SDS011;36921;49.006;9.292;2023-02-12T07:49:32;48.95;;;23.75;;
50932;SDS011;36921;49.006;9.292;2023-02-12T07:54:37;41.28;;;20.65;;
50932;SDS011;36921;49.006;9.292;2023-02-12T07:57:02;43.58;;;20.65;;
50932;SDS011;36921;49.006;9.292;2023-02-12T07:59:28;41.10;;;19.50;;
50932;SDS011;36921;49.006;9.292;2023-02-12T08:01:53;37.65;;;19.27;;
50932;SDS011;36921;49.006;9.292;2023-02-12T08:04:22;35.65;;;19.45;;
50932;SDS011;36921;49.006;9.292;2023-02-12T08:06:50;40.42;;;21.23;;
50932;SDS011;36921;49.006;9.292;2023-02-12T08:09:18;41.10;;;22.67;;
50932;SDS011;36921;49.006;9.292;2023-02-12T08:11:46;37.63;;;20.70;;
50932;SDS011;36921;49.006;9.292;2023-02-12T08:14:13;39.53;;;20.35;;
50932;SDS011;36921;49.006;9.292;2023-02-12T08:16:40;42.80;;;19.45;;
50932;SDS011;36921;49.006;9.292;2023-02-12T08:19:07;41.72;;;20.50;;
50932;SDS011;36921;49.006;9.292;2023-02-12T08:21:32;37.42;;;20.45;;
50932;SDS011;36921;49.006;9.292;2023-02-12T08:27:10;41.85;;;20.88;;
50932;SDS011;36921;49.006;9.292;2023-02-12T08:29:35;37.72;;;19.23;;
50932;SDS011;36921;49.006;9.292;2023-02-12T08:32:01;43.83;;;19.98;;
50932;SDS011;36921;49.006;9.292;2023-02-12T08:34:28;40.60;;;19.88;;
50932;SDS011;36921;49.006;9.292;2023-02-12T08:36:56;37.22;;;20.08;;
50932;SDS011;36921;49.006;9.292;2023-02-12T08:39:22;38.40;;;19.15;;
50932;SDS011;36921;49.006;9.292;2023-02-12T08:41:49;33.58;;;19.75;;
50932;SDS011;36921;49.006;9.292;2023-02-12T08:44:16;36.30;;;19.92;;
50932;SDS011;36921;49.006;9.292;2023-02-12T08:46:42;43.55;;;21.50;;
50932;SDS011;36921;49.006;9.292;2023-02-12T08:49:13;37.88;;;20.05;;
50932;SDS011;36921;49.006;9.292;2023-02-12T08:51:40;38.05;;;20.00;;
50932;SDS011;36921;49.006;9.292;2023-02-12T08:54:13;40.15;;;21.75;;
50932;SDS011;36921;49.006;9.292;2023-02-12T08:56:40;40.85;;;21.65;;
50932;SDS011;36921;49.006;9.292;2023-02-12T09:01:36;33.20;;;20.55;;
50932;SDS011;36921;49.006;9.292;2023-02-12T09:04:03;36.17;;;19.75;;
50932;SDS011;36921;49.006;9.292;2023-02-12T09:06:30;40.15;;;21.35;;
50932;SDS011;36921;49.006;9.292;2023-02-12T09:08:57;41.78;;;21.73;;
50932;SDS011;36921;49.006;9.292;2023-02-12T09:11:23;42.45;;;20.42;;
50932;SDS011;36921;49.006;9.292;2023-02-12T09:13:54;37.47;;;20.10;;
50932;SDS011;36921;49.006;9.292;2023-02-12T09:16:21;39.42;;;21.40;;
50932;SDS011;36921;49.006;9.292;2023-02-12T09:18:46;38.17;;;20.05;;
50932;SDS011;36921;49.006;9.292;2023-02-12T09:21:12;34.03;;;20.02;;
50932;SDS011;36921;49.006;9.292;2023-02-12T09:23:41;38.15;;;19.70;;
50932;SDS011;36921;49.006;9.292;2023-02-12T09:26:07;39.13;;;20.40;;
50932;SDS011;36921;49.006;9.292;2023-02-12T09:28:34;39.25;;;21.42;;
50932;SDS011;36921;49.006;9.292;2023-02-12T09:31:04;40.38;;;22.20;;
50932;SDS011;36921;49.006;9.292;2023-02-12T09:33:30;37.42;;;19.90;;
50932;SDS011;36921;49.006;9.292;2023-02-12T09:35:59;38.78;;;19.75;;
50932;SDS011;36921;49.006;9.292;2023-02-12T09:38:26;36.15;;;20.08;;
50932;SDS011;36921;49.006;9.292;2023-02-12T09:43:18;37.70;;;19.38;;
50932;SDS011;36921;49.006;9.292;2023-02-12T09:46:04;36.67;;;18.50;;
50932;SDS011;36921;49.006;9.292;2023-02-12T09:48:43;30.73;;;17.90;;
50932;SDS011;36921;49.006;9.292;2023-02-12T09:51:09;31.95;;;17.85;;
50932;SDS011;36921;49.006;9.292;2023-02-12T09:53:36;30.45;;;16.80;;
50932;SDS011;36921;49.006;9.292;2023-02-12T09:56:12;31.50;;;16.63;;
50932;SDS011;36921;49.006;9.292;2023-02-12T09:58:44;28.75;;;15.48;;
50932;SDS011;36921;49.006;9.292;2023-02-12T10:01:14;34.42;;;15.10;;
50932;SDS011;36921;49.006;9.292;2023-02-12T10:03:42;30.30;;;15.25;;
50932;SDS011;36921;49.006;9.292;2023-02-12T10:06:19;28.27;;;14.82;;
50932;SDS011;36921;49.006;9.292;2023-02-12T10:11:37;25.05;;;12.25;;
50932;SDS011;36921;49.006;9.292;2023-02-12T10:19:45;21.27;;;11.05;;
50932;SDS011;36921;49.006;9.292;2023-02-12T10:22:31;24.52;;;11.77;;
50932;SDS011;36921;49.006;9.292;2023-02-12T10:27:38;25.48;;;11.43;;
50932;SDS011;36921;49.006;9.292;2023-02-12T10:30:15;22.90;;;10.70;;
50932;SDS011;36921;49.006;9.292;2023-02-12T10:32:45;20.60;;;11.32;;
50932;SDS011;36921;49.006;9.292;2023-02-12T10:42:46;14.68;;;8.20;;
50932;SDS011;36921;49.006;9.292;2023-02-12T10:45:15;15.05;;;7.07;;
50932;SDS011;36921;49.006;9.292;2023-02-12T10:47:43;7.72;;;4.63;;
50932;SDS011;36921;49.006;9.292;2023-02-12T10:50:21;5.22;;;2.85;;
50932;SDS011;36921;49.006;9.292;2023-02-12T10:52:53;5.97;;;3.25;;
50932;SDS011;36921;49.006;9.292;2023-02-12T10:55:23;8.32;;;2.97;;
50932;SDS011;36921;49.006;9.292;2023-02-12T10:57:49;7.05;;;4.00;;
50932;SDS011;36921;49.006;9.292;2023-02-12T11:00:36;10.15;;;4.63;;
50932;SDS011;36921;49.006;9.292;2023-02-12T11:03:21;8.18;;;4.15;;
50932;SDS011;36921;49.006;9.292;2023-02-12T11:05:47;7.75;;;2.70;;
50932;SDS011;36921;49.006;9.292;2023-02-12T11:08:28;9.82;;;4.30;;
50932;SDS011;36921;49.006;9.292;2023-02-12T11:11:02;7.78;;;3.65;;
50932;SDS011;36921;49.006;9.292;2023-02-12T11:13:30;4.88;;;2.70;;
50932;SDS011;36921;49.006;9.292;2023-02-12T11:15:55;7.38;;;3.17;;
50932;SDS011;36921;49.006;9.292;2023-02-12T11:18:25;10.40;;;4.80;;
50932;SDS011;36921;49.006;9.292;2023-02-12T11:21:04;8.52;;;4.30;;
50932;SDS011;36921;49.006;9.292;2023-02-12T11:23:35;25.95;;;11.48;;
50932;SDS011;36921;49.006;9.292;2023-02-12T11:26:04;18.55;;;9.02;;
50932;SDS011;36921;49.006;9.292;2023-02-12T11:28:41;10.77;;;5.82;;
50932;SDS011;36921;49.006;9.292;2023-02-12T11:36:28;6.40;;;3.42;;
50932;SDS011;36921;49.006;9.292;2023-02-12T11:38:56;10.70;;;4.30;;
50932;SDS011;36921;49.006;9.292;2023-02-12T11:41:33;7.43;;;4.10;;
50932;SDS011;36921;49.006;9.292;2023-02-12T11:44:11;6.82;;;3.92;;
50932;SDS011;36921;49.006;9.292;2023-02-12T11:46:47;8.25;;;4.43;;
50932;SDS011;36921;49.006;9.292;2023-02-12T11:49:24;7.00;;;3.95;;
50932;SDS011;36921;49.006;9.292;2023-02-12T11:51:54;7.85;;;4.50;;
50932;SDS011;36921;49.006;9.292;2023-02-12T11:54:22;8.00;;;4.43;;
50932;SDS011;36921;49.006;9.292;2023-02-12T11:56:53;7.07;;;4.30;;
50932;SDS011;36921;49.006;9.292;2023-02-12T12:01:54;8.27;;;4.15;;
50932;SDS011;36921;49.006;9.292;2023-02-12T12:04:24;9.20;;;4.65;;
50932;SDS011;36921;49.006;9.292;2023-02-12T12:15:00;10.57;;;4.60;;
50932;SDS011;36921;49.006;9.292;2023-02-12T12:17:56;10.85;;;4.68;;
50932;SDS011;36921;49.006;9.292;2023-02-12T12:20:51;8.40;;;4.28;;
50932;SDS011;36921;49.006;9.292;2023-02-12T12:23:30;8.88;;;4.68;;
50932;SDS011;36921;49.006;9.292;2023-02-12T12:26:06;8.70;;;4.45;;
50932;SDS011;36921;49.006;9.292;2023-02-12T12:28:40;9.43;;;4.10;;
50932;SDS011;36921;49.006;9.292;2023-02-12T12:33:45;6.75;;;3.70;;
50932;SDS011;36921;49.006;9.292;2023-02-12T12:36:50;5.45;;;3.28;;
50932;SDS011;36921;49.006;9.292;2023-02-12T12:45:14;7.05;;;3.40;;
50932;SDS011;36921;49.006;9.292;2023-02-12T12:53:24;6.00;;;4.10;;
50932;SDS011;36921;49.006;9.292;2023-02-12T13:02:35;7.68;;;4.53;;
50932;SDS011;36921;49.006;9.292;2023-02-12T13:05:39;9.07;;;4.70;;
50932;SDS011;36921;49.006;9.292;2023-02-12T13:11:37;9.35;;;4.65;;
50932;SDS011;36921;49.006;9.292;2023-02-12T13:17:11;7.45;;;4.05;;
50932;SDS011;36921;49.006;9.292;2023-02-12T13:20:19;8.25;;;4.55;;
50932;SDS011;36921;49.006;9.292;2023-02-12T13:25:22;8.90;;;4.60;;
50932;SDS011;36921;49.006;9.292;2023-02-12T13:27:55;7.88;;;4.57;;
50932;SDS011;36921;49.006;9.292;2023-02-12T13:30:24;8.60;;;5.17;;
50932;SDS011;36921;49.006;9.292;2023-02-12T13:33:10;8.13;;;5.00;;
50932;SDS011;36921;49.006;9.292;2023-02-12T13:35:44;8.27;;;4.78;;
50932;SDS011;36921;49.006;9.292;2023-02-12T13:38:16;9.95;;;5.47;;
50932;SDS011;36921;49.006;9.292;2023-02-12T13:40:44;9.82;;;5.20;;
50932;SDS011;36921;49.006;9.292;2023-02-12T13:46:00;7.80;;;4.95;;
50932;SDS011;36921;49.006;9.292;2023-02-12T13:51:49;8.30;;;4.75;;
50932;SDS011;36921;49.006;9.292;2023-02-12T13:56:28;8.85;;;4.95;;
50932;SDS011;36921;49.006;9.292;2023-02-12T14:02:00;8.80;;;4.65;;
50932;SDS011;36921;49.006;9.292;2023-02-12T14:04:31;9.65;;;4.82;;
50932;SDS011;36921;49.006;9.292;2023-02-12T14:07:04;8.25;;;5.18;;
50932;SDS011;36921;49.006;9.292;2023-02-12T14:09:34;8.07;;;4.28;;
50932;SDS011;36921;49.006;9.292;2023-02-12T14:12:03;7.72;;;4.40;;
50932;SDS011;36921;49.006;9.292;2023-02-12T14:14:37;8.50;;;4.93;;
50932;SDS011;36921;49.006;9.292;2023-02-12T14:19:58;6.63;;;4.40;;
50932;SDS011;36921;49.006;9.292;2023-02-12T14:30:20;6.85;;;4.32;;
50932;SDS011;36921;49.006;9.292;2023-02-12T14:37:52;8.02;;;4.03;;
50932;SDS011;36921;49.006;9.292;2023-02-12T14:48:54;6.85;;;3.92;;
50932;SDS011;36921;49.006;9.292;2023-02-12T14:57:19;7.25;;;4.20;;
50932;SDS011;36921;49.006;9.292;2023-02-12T14:59:49;7.55;;;4.18;;
50932;SDS011;36921;49.006;9.292;2023-02-12T15:02:22;7.82;;;4.30;;
50932;SDS011;36921;49.006;9.292;2023-02-12T15:04:50;7.05;;;4.13;;
50932;SDS011;36921;49.006;9.292;2023-02-12T15:07:39;9.63;;;4.70;;
50932;SDS011;36921;49.006;9.292;2023-02-12T15:10:15;8.55;;;4.30;;
50932;SDS011;36921;49.006;9.292;2023-02-12T15:21:06;9.38;;;4.47;;
50932;SDS011;36921;49.006;9.292;2023-02-12T15:24:02;12.15;;;7.68;;
50932;SDS011;36921;49.006;9.292;2023-02-12T15:26:39;9.52;;;5.63;;
50932;SDS011;36921;49.006;9.292;2023-02-12T15:29:29;10.40;;;4.53;;
50932;SDS011;36921;49.006;9.292;2023-02-12T15:31:59;8.02;;;4.18;;
50932;SDS011;36921;49.006;9.292;2023-02-12T15:34:32;7.70;;;4.05;;
50932;SDS011;36921;49.006;9.292;2023-02-12T15:37:02;7.13;;;4.07;;
50932;SDS011;36921;49.006;9.292;2023-02-12T15:39:47;7.60;;;3.70;;
50932;SDS011;36921;49.006;9.292;2023-02-12T15:47:40;5.65;;;3.70;;
50932;SDS011;36921;49.006;9.292;2023-02-12T15:50:09;6.55;;;3.67;;
50932;SDS011;36921;49.006;9.292;2023-02-12T15:52:37;6.93;;;3.22;;
50932;SDS011;36921;49.006;9.292;2023-02-12T15:55:05;7.07;;;3.60;;
50932;SDS011;36921;49.006;9.292;2023-02-12T15:57:38;7.53;;;3.78;;
50932;SDS011;36921;49.006;9.292;2023-02-12T16:00:05;8.70;;;3.65;;
50932;SDS011;36921;49.006;9.292;2023-02-12T16:02:42;6.60;;;3.83;;
50932;SDS011;36921;49.006;9.292;2023-02-12T16:05:08;8.00;;;4.05;;
50932;SDS011;36921;49.006;9.292;2023-02-12T16:07:39;6.30;;;3.42;;
50932;SDS011;36921;49.006;9.292;2023-02-12T16:10:04;8.45;;;3.92;;
50932;SDS011;36921;49.006;9.292;2023-02-12T16:12:31;7.78;;;4.00;;
50932;SDS011;36921;49.006;9.292;2023-02-12T16:15:00;7.38;;;3.50;;
50932;SDS011;36921;49.006;9.292;2023-02-12T16:17:28;7.38;;;3.53;;
50932;SDS011;36921;49.006;9.292;2023-02-12T16:22:44;5.78;;;3.47;;
50932;SDS011;36921;49.006;9.292;2023-02-12T16:25:20;8.82;;;3.83;;
50932;SDS011;36921;49.006;9.292;2023-02-12T16:28:01;9.15;;;4.05;;
50932;SDS011;36921;49.006;9.292;2023-02-12T16:30:31;12.23;;;4.55;;
50932;SDS011;36921;49.006;9.292;2023-02-12T16:36:03;7.47;;;3.90;;
50932;SDS011;36921;49.006;9.292;2023-02-12T16:38:53;8.23;;;3.60;;
50932;SDS011;36921;49.006;9.292;2023-02-12T16:41:30;6.88;;;3.50;;
50932;SDS011;36921;49.006;9.292;2023-02-12T16:46:25;6.78;;;3.30;;
50932;SDS011;36921;49.006;9.292;2023-02-12T16:48:52;6.82;;;3.67;;
50932;SDS011;36921;49.006;9.292;2023-02-12T16:53:58;6.57;;;4.20;;
50932;SDS011;36921;49.006;9.292;2023-02-12T16:56:26;7.57;;;4.18;;
50932;SDS011;36921;49.006;9.292;2023-02-12T16:58:55;10.98;;;4.20;;
50932;SDS011;36921;49.006;9.292;2023-02-12T17:03:49;7.95;;;4.47;;
50932;SDS011;36921;49.006;9.292;2023-02-12T17:06:16;11.95;;;5.57;;
50932;SDS011;36921;49.006;9.292;2023-02-12T17:08:42;14.55;;;6.00;;
50932;SDS011;36921;49.006;9.292;2023-02-12T17:11:07;10.18;;;5.57;;
50932;SDS011;36921;49.006;9.292;2023-02-12T17:13:33;10.77;;;5.20;;
50932;SDS011;36921;49.006;9.292;2023-02-12T17:15:58;10.32;;;5.40;;
50932;SDS011;36921;49.006;9.292;2023-02-12T17:20:58;12.32;;;6.07;;
50932;SDS011;36921;49.006;9.292;2023-02-12T17:23:25;11.52;;;5.10;;
50932;SDS011;36921;49.006;9.292;2023-02-12T17:25:51;16.05;;;6.47;;
50932;SDS011;36921;49.006;9.292;2023-02-12T17:28:17;10.63;;;5.45;;
50932;SDS011;36921;49.006;9.292;2023-02-12T17:30:42;13.77;;;6.25;;
50932;SDS011;36921;49.006;9.292;2023-02-12T17:33:07;12.65;;;5.60;;
50932;SDS011;36921;49.006;9.292;2023-02-12T17:35:33;13.20;;;5.63;;
50932;SDS011;36921;49.006;9.292;2023-02-12T17:37:58;11.57;;;4.90;;
50932;SDS011;36921;49.006;9.292;2023-02-12T17:40:24;12.50;;;5.45;;
50932;SDS011;36921;49.006;9.292;2023-02-12T17:42:49;9.13;;;4.25;;
50932;SDS011;36921;49.006;9.292;2023-02-12T17:45:14;9.52;;;4.50;;
50932;SDS011;36921;49.006;9.292;2023-02-12T17:47:41;9.90;;;4.50;;
50932;SDS011;36921;49.006;9.292;2023-02-12T17:50:10;8.85;;;5.10;;